Terminal Aerodrome Forecast
Issued by NWS Milwaukee/Sullivan, WI

Home | Current Version | Previous Version | Text Only | Print | Product List | Glossary On
Versions: 1 2 3 4 5 6 7 8 9 10 11 12 13 14 15 16 17 18 19 20 21 22 23 24 25 26 27 28 29 30
000
FTUS43 KMKX 242320
TAFMSN
TAF
KMSN 242320Z 2500/2524 28015G28KT P6SM -SHRA VCTS SCT030 BKN050CB
     FM250100 28009KT P6SM VCSH BKN060
     FM250300 27006KT P6SM SCT050
     FM251500 29008KT P6SM BKN040
     FM251900 28010KT P6SM VCSH BKN050=

USA.gov is the U.S. government's official web portal to all federal, state and local government web resources and services.